sensor_id;sensor_type;location;lat;lon;timestamp;temperature;humidity
19522;DHT22;9905;52.126;5.596;2022-10-16T00:01:34;13.00;99.90
19522;DHT22;9905;52.126;5.596;2022-10-16T00:04:02;12.90;99.90
19522;DHT22;9905;52.126;5.596;2022-10-16T00:06:30;12.80;99.90
19522;DHT22;9905;52.126;5.596;2022-10-16T00:08:58;12.80;99.90
19522;DHT22;9905;52.126;5.596;2022-10-16T00:11:26;12.80;99.90
19522;DHT22;9905;52.126;5.596;2022-10-16T00:13:56;12.80;99.90
19522;DHT22;9905;52.126;5.596;2022-10-16T00:16:23;12.80;99.90
19522;DHT22;9905;52.126;5.596;2022-10-16T00:18:50;12.80;99.90
19522;DHT22;9905;52.126;5.596;2022-10-16T00:21:18;12.80;99.90
19522;DHT22;9905;52.126;5.596;2022-10-16T00:23:46;12.80;99.90
19522;DHT22;9905;52.126;5.596;2022-10-16T00:26:15;12.80;99.90
19522;DHT22;9905;52.126;5.596;2022-10-16T00:28:44;12.80;99.90
19522;DHT22;9905;52.126;5.596;2022-10-16T00:31:12;12.80;99.90
19522;DHT22;9905;52.126;5.596;2022-10-16T00:33:39;12.80;99.90
19522;DHT22;9905;52.126;5.596;2022-10-16T00:36:08;12.80;99.90
19522;DHT22;9905;52.126;5.596;2022-10-16T00:38:36;12.80;99.90
19522;DHT22;9905;52.126;5.596;2022-10-16T00:41:03;12.80;99.90
19522;DHT22;9905;52.126;5.596;2022-10-16T00:43:38;12.80;99.90
19522;DHT22;9905;52.126;5.596;2022-10-16T00:46:12;12.80;99.90
19522;DHT22;9905;52.126;5.596;2022-10-16T00:48:40;12.80;99.90
19522;DHT22;9905;52.126;5.596;2022-10-16T00:51:07;12.80;99.90
19522;DHT22;9905;52.126;5.596;2022-10-16T00:53:35;12.80;99.90
19522;DHT22;9905;52.126;5.596;2022-10-16T00:56:02;12.80;99.90
19522;DHT22;9905;52.126;5.596;2022-10-16T00:58:30;12.80;99.90
19522;DHT22;9905;52.126;5.596;2022-10-16T01:00:58;12.90;99.90
19522;DHT22;9905;52.126;5.596;2022-10-16T01:03:27;12.90;99.90
19522;DHT22;9905;52.126;5.596;2022-10-16T01:06:04;12.90;99.90
19522;DHT22;9905;52.126;5.596;2022-10-16T01:08:42;12.90;99.90
19522;DHT22;9905;52.126;5.596;2022-10-16T01:11:17;13.00;99.90
19522;DHT22;9905;52.126;5.596;2022-10-16T01:13:50;13.00;99.90
19522;DHT22;9905;52.126;5.596;2022-10-16T01:16:27;13.00;99.90
19522;DHT22;9905;52.126;5.596;2022-10-16T01:19:01;13.00;99.90
19522;DHT22;9905;52.126;5.596;2022-10-16T01:21:34;13.10;99.90
19522;DHT22;9905;52.126;5.596;2022-10-16T01:24:06;13.10;99.90
19522;DHT22;9905;52.126;5.596;2022-10-16T01:26:50;13.10;99.90
19522;DHT22;9905;52.126;5.596;2022-10-16T01:29:23;13.10;99.90
19522;DHT22;9905;52.126;5.596;2022-10-16T01:32:00;13.10;99.90
19522;DHT22;9905;52.126;5.596;2022-10-16T01:34:33;13.10;99.90
19522;DHT22;9905;52.126;5.596;2022-10-16T01:37:05;13.10;99.90
19522;DHT22;9905;52.126;5.596;2022-10-16T01:39:35;13.10;99.90
19522;DHT22;9905;52.126;5.596;2022-10-16T01:42:06;13.20;99.90
19522;DHT22;9905;52.126;5.596;2022-10-16T01:44:36;13.20;99.90
19522;DHT22;9905;52.126;5.596;2022-10-16T01:47:05;13.30;99.90
19522;DHT22;9905;52.126;5.596;2022-10-16T01:49:34;13.30;99.90
19522;DHT22;9905;52.126;5.596;2022-10-16T01:52:05;13.30;99.90
19522;DHT22;9905;52.126;5.596;2022-10-16T01:54:33;13.30;99.90
19522;DHT22;9905;52.126;5.596;2022-10-16T01:57:01;13.30;99.90
19522;DHT22;9905;52.126;5.596;2022-10-16T01:59:31;13.30;99.90
19522;DHT22;9905;52.126;5.596;2022-10-16T02:02:04;13.30;99.90
19522;DHT22;9905;52.126;5.596;2022-10-16T02:04:36;13.30;99.90
19522;DHT22;9905;52.126;5.596;2022-10-16T02:07:03;13.30;99.90
19522;DHT22;9905;52.126;5.596;2022-10-16T02:09:33;13.40;99.90
19522;DHT22;9905;52.126;5.596;2022-10-16T02:12:03;13.40;99.90
19522;DHT22;9905;52.126;5.596;2022-10-16T02:14:32;13.30;99.90
19522;DHT22;9905;52.126;5.596;2022-10-16T02:17:00;13.30;99.90
19522;DHT22;9905;52.126;5.596;2022-10-16T02:19:27;13.30;99.90
19522;DHT22;9905;52.126;5.596;2022-10-16T02:21:55;13.30;99.90
19522;DHT22;9905;52.126;5.596;2022-10-16T02:24:28;13.30;99.90
19522;DHT22;9905;52.126;5.596;2022-10-16T02:27:05;13.30;99.90
19522;DHT22;9905;52.126;5.596;2022-10-16T02:29:38;13.30;99.90
19522;DHT22;9905;52.126;5.596;2022-10-16T02:32:12;13.40;99.90
19522;DHT22;9905;52.126;5.596;2022-10-16T02:34:41;13.40;99.90
19522;DHT22;9905;52.126;5.596;2022-10-16T02:37:08;13.40;99.90
19522;DHT22;9905;52.126;5.596;2022-10-16T02:39:36;13.40;99.90
19522;DHT22;9905;52.126;5.596;2022-10-16T02:42:03;13.40;99.90
19522;DHT22;9905;52.126;5.596;2022-10-16T02:44:30;13.40;99.90
19522;DHT22;9905;52.126;5.596;2022-10-16T02:46:56;13.40;99.90
19522;DHT22;9905;52.126;5.596;2022-10-16T02:49:25;13.30;99.90
19522;DHT22;9905;52.126;5.596;2022-10-16T02:51:51;13.30;99.90
19522;DHT22;9905;52.126;5.596;2022-10-16T02:54:18;13.30;99.90
19522;DHT22;9905;52.126;5.596;2022-10-16T02:56:45;13.30;99.90
19522;DHT22;9905;52.126;5.596;2022-10-16T02:59:11;13.30;99.90
19522;DHT22;9905;52.126;5.596;2022-10-16T03:01:38;13.30;99.90
19522;DHT22;9905;52.126;5.596;2022-10-16T03:04:05;13.30;99.90
19522;DHT22;9905;52.126;5.596;2022-10-16T03:06:33;13.20;99.90
19522;DHT22;9905;52.126;5.596;2022-10-16T03:08:59;13.30;99.90
19522;DHT22;9905;52.126;5.596;2022-10-16T03:11:26;13.30;99.90
19522;DHT22;9905;52.126;5.596;2022-10-16T03:13:53;13.30;99.90
19522;DHT22;9905;52.126;5.596;2022-10-16T03:16:20;13.20;99.90
19522;DHT22;9905;52.126;5.596;2022-10-16T03:18:48;13.20;99.90
19522;DHT22;9905;52.126;5.596;2022-10-16T03:21:15;13.30;99.90
19522;DHT22;9905;52.126;5.596;2022-10-16T03:23:43;13.20;99.90
19522;DHT22;9905;52.126;5.596;2022-10-16T03:26:10;13.20;99.90
19522;DHT22;9905;52.126;5.596;2022-10-16T03:28:37;13.20;99.90
19522;DHT22;9905;52.126;5.596;2022-10-16T03:31:03;13.20;99.90
19522;DHT22;9905;52.126;5.596;2022-10-16T03:33:30;13.20;99.90
19522;DHT22;9905;52.126;5.596;2022-10-16T03:35:57;13.10;99.90
19522;DHT22;9905;52.126;5.596;2022-10-16T03:38:24;13.20;99.90
19522;DHT22;9905;52.126;5.596;2022-10-16T03:40:52;13.10;99.90
19522;DHT22;9905;52.126;5.596;2022-10-16T03:43:19;13.10;99.90
19522;DHT22;9905;52.126;5.596;2022-10-16T03:45:45;13.10;99.90
19522;DHT22;9905;52.126;5.596;2022-10-16T03:48:12;13.10;99.90
19522;DHT22;9905;52.126;5.596;2022-10-16T03:50:40;13.10;99.90
19522;DHT22;9905;52.126;5.596;2022-10-16T03:53:07;13.10;99.90
19522;DHT22;9905;52.126;5.596;2022-10-16T03:55:34;13.10;99.90
19522;DHT22;9905;52.126;5.596;2022-10-16T03:58:02;13.10;99.90
19522;DHT22;9905;52.126;5.596;2022-10-16T04:00:29;13.10;99.90
19522;DHT22;9905;52.126;5.596;2022-10-16T04:02:56;13.10;99.90
19522;DHT22;9905;52.126;5.596;2022-10-16T04:05:23;13.10;99.90
19522;DHT22;9905;52.126;5.596;2022-10-16T04:07:49;13.10;99.90
19522;DHT22;9905;52.126;5.596;2022-10-16T04:10:16;13.10;99.90
19522;DHT22;9905;52.126;5.596;2022-10-16T04:12:43;13.10;99.90
19522;DHT22;9905;52.126;5.596;2022-10-16T04:15:11;13.00;99.90
19522;DHT22;9905;52.126;5.596;2022-10-16T04:17:38;13.00;99.90
19522;DHT22;9905;52.126;5.596;2022-10-16T04:20:05;13.00;99.90
19522;DHT22;9905;52.126;5.596;2022-10-16T04:22:32;13.00;99.90
19522;DHT22;9905;52.126;5.596;2022-10-16T04:24:59;13.00;99.90
19522;DHT22;9905;52.126;5.596;2022-10-16T04:27:26;13.00;99.90
19522;DHT22;9905;52.126;5.596;2022-10-16T04:29:54;12.90;99.90
19522;DHT22;9905;52.126;5.596;2022-10-16T04:32:22;12.90;99.90
19522;DHT22;9905;52.126;5.596;2022-10-16T04:34:49;12.90;99.90
19522;DHT22;9905;52.126;5.596;2022-10-16T04:37:15;12.90;99.90
19522;DHT22;9905;52.126;5.596;2022-10-16T04:39:42;12.80;99.90
19522;DHT22;9905;52.126;5.596;2022-10-16T04:42:10;12.80;99.90
19522;DHT22;9905;52.126;5.596;2022-10-16T04:44:37;12.80;99.90
19522;DHT22;9905;52.126;5.596;2022-10-16T04:47:04;12.80;99.90
19522;DHT22;9905;52.126;5.596;2022-10-16T04:49:32;12.80;99.90
19522;DHT22;9905;52.126;5.596;2022-10-16T04:51:58;12.80;99.90
19522;DHT22;9905;52.126;5.596;2022-10-16T04:54:25;12.80;99.90
19522;DHT22;9905;52.126;5.596;2022-10-16T04:56:52;12.80;99.90
19522;DHT22;9905;52.126;5.596;2022-10-16T04:59:19;12.80;99.90
19522;DHT22;9905;52.126;5.596;2022-10-16T05:01:46;12.80;99.90
19522;DHT22;9905;52.126;5.596;2022-10-16T05:04:13;12.80;99.90
19522;DHT22;9905;52.126;5.596;2022-10-16T05:06:42;12.80;99.90
19522;DHT22;9905;52.126;5.596;2022-10-16T05:09:09;12.80;99.90
19522;DHT22;9905;52.126;5.596;2022-10-16T05:11:36;12.80;99.90
19522;DHT22;9905;52.126;5.596;2022-10-16T05:14:02;12.80;99.90
19522;DHT22;9905;52.126;5.596;2022-10-16T05:16:29;12.70;99.90
19522;DHT22;9905;52.126;5.596;2022-10-16T05:18:56;12.70;99.90
19522;DHT22;9905;52.126;5.596;2022-10-16T05:21:23;12.70;99.90
19522;DHT22;9905;52.126;5.596;2022-10-16T05:23:52;12.70;99.90
19522;DHT22;9905;52.126;5.596;2022-10-16T05:26:19;12.70;99.90
19522;DHT22;9905;52.126;5.596;2022-10-16T05:28:46;12.70;99.90
19522;DHT22;9905;52.126;5.596;2022-10-16T05:31:13;12.70;99.90
19522;DHT22;9905;52.126;5.596;2022-10-16T05:33:40;12.60;99.90
19522;DHT22;9905;52.126;5.596;2022-10-16T05:36:09;12.60;99.90
19522;DHT22;9905;52.126;5.596;2022-10-16T05:38:36;12.60;99.90
19522;DHT22;9905;52.126;5.596;2022-10-16T05:41:06;12.60;99.90
19522;DHT22;9905;52.126;5.596;2022-10-16T05:43:32;12.60;99.90
19522;DHT22;9905;52.126;5.596;2022-10-16T05:46:01;12.60;99.90
19522;DHT22;9905;52.126;5.596;2022-10-16T05:48:29;12.50;99.90
19522;DHT22;9905;52.126;5.596;2022-10-16T05:50:57;12.50;99.90
19522;DHT22;9905;52.126;5.596;2022-10-16T05:53:23;12.50;99.90
19522;DHT22;9905;52.126;5.596;2022-10-16T05:55:52;12.50;99.90
19522;DHT22;9905;52.126;5.596;2022-10-16T05:58:20;12.50;99.90
19522;DHT22;9905;52.126;5.596;2022-10-16T06:00:53;12.50;99.90
19522;DHT22;9905;52.126;5.596;2022-10-16T06:03:21;12.50;99.90
19522;DHT22;9905;52.126;5.596;2022-10-16T06:05:48;12.50;99.90
19522;DHT22;9905;52.126;5.596;2022-10-16T06:08:14;12.50;99.90
19522;DHT22;9905;52.126;5.596;2022-10-16T06:10:41;12.50;99.90
19522;DHT22;9905;52.126;5.596;2022-10-16T06:13:09;12.60;99.90
19522;DHT22;9905;52.126;5.596;2022-10-16T06:15:37;12.60;99.90
19522;DHT22;9905;52.126;5.596;2022-10-16T06:18:04;12.60;99.90
19522;DHT22;9905;52.126;5.596;2022-10-16T06:20:31;12.60;99.90
19522;DHT22;9905;52.126;5.596;2022-10-16T06:22:57;12.60;99.90
19522;DHT22;9905;52.126;5.596;2022-10-16T06:25:24;12.60;99.90
19522;DHT22;9905;52.126;5.596;2022-10-16T06:27:51;12.60;99.90
19522;DHT22;9905;52.126;5.596;2022-10-16T06:30:18;12.60;99.90
19522;DHT22;9905;52.126;5.596;2022-10-16T06:32:46;12.70;99.90
19522;DHT22;9905;52.126;5.596;2022-10-16T06:35:12;12.70;99.90
19522;DHT22;9905;52.126;5.596;2022-10-16T06:37:39;12.70;99.90
19522;DHT22;9905;52.126;5.596;2022-10-16T06:40:06;12.70;99.90
19522;DHT22;9905;52.126;5.596;2022-10-16T06:42:33;12.70;99.90
19522;DHT22;9905;52.126;5.596;2022-10-16T06:45:00;12.80;99.90
19522;DHT22;9905;52.126;5.596;2022-10-16T06:47:27;12.80;99.90
19522;DHT22;9905;52.126;5.596;2022-10-16T06:49:55;12.90;99.90
19522;DHT22;9905;52.126;5.596;2022-10-16T06:52:22;12.90;99.90
19522;DHT22;9905;52.126;5.596;2022-10-16T06:54:49;12.90;99.90
19522;DHT22;9905;52.126;5.596;2022-10-16T06:57:16;13.00;99.90
19522;DHT22;9905;52.126;5.596;2022-10-16T06:59:43;13.00;99.90
19522;DHT22;9905;52.126;5.596;2022-10-16T07:02:09;13.00;99.90
19522;DHT22;9905;52.126;5.596;2022-10-16T07:04:36;13.00;99.90
19522;DHT22;9905;52.126;5.596;2022-10-16T07:07:04;13.00;99.90
19522;DHT22;9905;52.126;5.596;2022-10-16T07:09:31;13.00;99.90
19522;DHT22;9905;52.126;5.596;2022-10-16T07:11:58;13.10;99.90
19522;DHT22;9905;52.126;5.596;2022-10-16T07:14:24;13.20;99.90
19522;DHT22;9905;52.126;5.596;2022-10-16T07:16:51;13.10;99.90
19522;DHT22;9905;52.126;5.596;2022-10-16T07:19:18;13.20;99.90
19522;DHT22;9905;52.126;5.596;2022-10-16T07:21:45;13.20;99.90
19522;DHT22;9905;52.126;5.596;2022-10-16T07:24:16;13.20;99.90
19522;DHT22;9905;52.126;5.596;2022-10-16T07:26:46;13.30;99.90
19522;DHT22;9905;52.126;5.596;2022-10-16T07:29:15;13.30;99.90
19522;DHT22;9905;52.126;5.596;2022-10-16T07:31:44;13.30;99.90
19522;DHT22;9905;52.126;5.596;2022-10-16T07:34:12;13.40;99.90
19522;DHT22;9905;52.126;5.596;2022-10-16T07:36:39;13.40;99.90
19522;DHT22;9905;52.126;5.596;2022-10-16T07:39:06;13.40;99.90
19522;DHT22;9905;52.126;5.596;2022-10-16T07:41:35;13.40;99.90
19522;DHT22;9905;52.126;5.596;2022-10-16T07:44:03;13.50;99.90
19522;DHT22;9905;52.126;5.596;2022-10-16T07:46:32;13.50;99.90
19522;DHT22;9905;52.126;5.596;2022-10-16T07:49:01;13.50;99.90
19522;DHT22;9905;52.126;5.596;2022-10-16T07:51:28;13.50;99.90
19522;DHT22;9905;52.126;5.596;2022-10-16T07:53:55;13.50;99.90
19522;DHT22;9905;52.126;5.596;2022-10-16T07:56:22;13.60;99.90
19522;DHT22;9905;52.126;5.596;2022-10-16T07:58:50;13.60;99.90
19522;DHT22;9905;52.126;5.596;2022-10-16T08:01:18;13.60;99.90
19522;DHT22;9905;52.126;5.596;2022-10-16T08:03:46;13.60;99.90
19522;DHT22;9905;52.126;5.596;2022-10-16T08:06:13;13.60;99.90
19522;DHT22;9905;52.126;5.596;2022-10-16T08:08:40;13.70;99.90
19522;DHT22;9905;52.126;5.596;2022-10-16T08:11:07;13.70;99.90
19522;DHT22;9905;52.126;5.596;2022-10-16T08:13:34;13.80;99.90
19522;DHT22;9905;52.126;5.596;2022-10-16T08:16:02;13.80;99.90
19522;DHT22;9905;52.126;5.596;2022-10-16T08:18:33;13.90;99.90
19522;DHT22;9905;52.126;5.596;2022-10-16T08:21:00;14.00;99.90
19522;DHT22;9905;52.126;5.596;2022-10-16T08:23:27;14.00;99.90
19522;DHT22;9905;52.126;5.596;2022-10-16T08:25:55;14.10;99.90
19522;DHT22;9905;52.126;5.596;2022-10-16T08:28:22;14.10;99.90
19522;DHT22;9905;52.126;5.596;2022-10-16T08:30:49;14.20;99.90
19522;DHT22;9905;52.126;5.596;2022-10-16T08:33:17;14.20;99.90
19522;DHT22;9905;52.126;5.596;2022-10-16T08:35:50;14.40;99.90
19522;DHT22;9905;52.126;5.596;2022-10-16T08:38:17;14.40;99.90
19522;DHT22;9905;52.126;5.596;2022-10-16T08:40:44;14.40;99.90
19522;DHT22;9905;52.126;5.596;2022-10-16T08:43:26;14.50;99.90
19522;DHT22;9905;52.126;5.596;2022-10-16T08:46:15;14.50;99.90
19522;DHT22;9905;52.126;5.596;2022-10-16T08:48:46;14.60;99.90
19522;DHT22;9905;52.126;5.596;2022-10-16T08:51:19;14.60;99.90
19522;DHT22;9905;52.126;5.596;2022-10-16T08:53:50;14.70;99.90
19522;DHT22;9905;52.126;5.596;2022-10-16T08:56:19;14.70;99.90
19522;DHT22;9905;52.126;5.596;2022-10-16T08:58:46;14.80;99.90
19522;DHT22;9905;52.126;5.596;2022-10-16T09:01:14;14.80;99.90
19522;DHT22;9905;52.126;5.596;2022-10-16T09:06:47;14.90;99.90
19522;DHT22;9905;52.126;5.596;2022-10-16T09:09:41;14.90;99.90
19522;DHT22;9905;52.126;5.596;2022-10-16T09:12:16;15.00;99.90
19522;DHT22;9905;52.126;5.596;2022-10-16T09:14:52;15.10;99.90
19522;DHT22;9905;52.126;5.596;2022-10-16T09:17:30;15.20;99.90
19522;DHT22;9905;52.126;5.596;2022-10-16T09:20:13;15.20;99.90
19522;DHT22;9905;52.126;5.596;2022-10-16T09:22:43;15.40;99.90
19522;DHT22;9905;52.126;5.596;2022-10-16T09:25:12;15.40;99.90
19522;DHT22;9905;52.126;5.596;2022-10-16T09:27:40;15.50;99.90
19522;DHT22;9905;52.126;5.596;2022-10-16T09:30:12;15.60;99.90
19522;DHT22;9905;52.126;5.596;2022-10-16T09:32:39;15.70;99.90
19522;DHT22;9905;52.126;5.596;2022-10-16T09:35:13;15.70;99.90
19522;DHT22;9905;52.126;5.596;2022-10-16T09:37:44;15.70;99.90
19522;DHT22;9905;52.126;5.596;2022-10-16T09:40:13;15.80;99.90
19522;DHT22;9905;52.126;5.596;2022-10-16T09:42:40;15.90;99.90
19522;DHT22;9905;52.126;5.596;2022-10-16T09:45:20;15.90;99.90
19522;DHT22;9905;52.126;5.596;2022-10-16T09:47:48;16.00;99.90
19522;DHT22;9905;52.126;5.596;2022-10-16T09:50:22;16.00;99.90
19522;DHT22;9905;52.126;5.596;2022-10-16T09:52:50;16.10;99.90
19522;DHT22;9905;52.126;5.596;2022-10-16T09:55:18;16.10;99.90
19522;DHT22;9905;52.126;5.596;2022-10-16T09:57:51;16.20;99.90
19522;DHT22;9905;52.126;5.596;2022-10-16T10:00:18;16.30;99.90
19522;DHT22;9905;52.126;5.596;2022-10-16T10:02:45;16.30;99.90
19522;DHT22;9905;52.126;5.596;2022-10-16T10:05:21;16.40;99.90
19522;DHT22;9905;52.126;5.596;2022-10-16T10:07:56;16.40;99.90
19522;DHT22;9905;52.126;5.596;2022-10-16T10:10:25;16.50;99.90
19522;DHT22;9905;52.126;5.596;2022-10-16T10:12:52;16.50;99.90
19522;DHT22;9905;52.126;5.596;2022-10-16T10:15:19;16.50;99.90
19522;DHT22;9905;52.126;5.596;2022-10-16T10:17:50;16.60;99.90
19522;DHT22;9905;52.126;5.596;2022-10-16T10:20:26;16.80;99.90
19522;DHT22;9905;52.126;5.596;2022-10-16T10:22:54;16.80;99.90
19522;DHT22;9905;52.126;5.596;2022-10-16T10:25:38;16.90;99.90
19522;DHT22;9905;52.126;5.596;2022-10-16T10:28:18;16.90;99.90
19522;DHT22;9905;52.126;5.596;2022-10-16T10:30:55;16.90;99.90
19522;DHT22;9905;52.126;5.596;2022-10-16T10:33:28;17.00;99.90
19522;DHT22;9905;52.126;5.596;2022-10-16T10:36:02;17.00;99.90
19522;DHT22;9905;52.126;5.596;2022-10-16T10:38:35;16.90;99.90
19522;DHT22;9905;52.126;5.596;2022-10-16T10:41:23;16.90;99.90
19522;DHT22;9905;52.126;5.596;2022-10-16T10:44:01;16.80;99.90
19522;DHT22;9905;52.126;5.596;2022-10-16T10:46:35;16.80;99.90
19522;DHT22;9905;52.126;5.596;2022-10-16T10:49:24;16.90;99.90
19522;DHT22;9905;52.126;5.596;2022-10-16T10:52:02;16.90;99.90
19522;DHT22;9905;52.126;5.596;2022-10-16T10:54:36;17.00;99.90
19522;DHT22;9905;52.126;5.596;2022-10-16T10:57:10;17.00;99.90
19522;DHT22;9905;52.126;5.596;2022-10-16T10:59:53;17.20;99.90
19522;DHT22;9905;52.126;5.596;2022-10-16T11:02:26;17.30;99.90
19522;DHT22;9905;52.126;5.596;2022-10-16T11:05:24;17.40;99.90
19522;DHT22;9905;52.126;5.596;2022-10-16T11:07:57;17.50;99.90
19522;DHT22;9905;52.126;5.596;2022-10-16T11:10:28;17.40;99.90
19522;DHT22;9905;52.126;5.596;2022-10-16T11:13:04;17.40;99.90
19522;DHT22;9905;52.126;5.596;2022-10-16T11:15:39;17.30;99.90
19522;DHT22;9905;52.126;5.596;2022-10-16T11:18:10;17.30;99.90
19522;DHT22;9905;52.126;5.596;2022-10-16T11:20:41;17.30;99.90
19522;DHT22;9905;52.126;5.596;2022-10-16T11:23:15;17.40;99.90
19522;DHT22;9905;52.126;5.596;2022-10-16T11:25:43;17.50;99.90
19522;DHT22;9905;52.126;5.596;2022-10-16T11:28:15;17.70;99.90
19522;DHT22;9905;52.126;5.596;2022-10-16T11:30:46;17.80;99.90
19522;DHT22;9905;52.126;5.596;2022-10-16T11:33:27;18.00;99.90
19522;DHT22;9905;52.126;5.596;2022-10-16T11:36:00;18.10;99.90
19522;DHT22;9905;52.126;5.596;2022-10-16T11:38:34;18.10;99.90
19522;DHT22;9905;52.126;5.596;2022-10-16T11:41:07;18.20;99.90
19522;DHT22;9905;52.126;5.596;2022-10-16T11:43:41;18.10;99.90
19522;DHT22;9905;52.126;5.596;2022-10-16T11:46:12;18.10;99.90
19522;DHT22;9905;52.126;5.596;2022-10-16T11:48:45;18.20;99.90
19522;DHT22;9905;52.126;5.596;2022-10-16T11:51:17;18.30;99.90
19522;DHT22;9905;52.126;5.596;2022-10-16T11:53:53;18.30;99.90
19522;DHT22;9905;52.126;5.596;2022-10-16T11:56:21;18.40;99.90
19522;DHT22;9905;52.126;5.596;2022-10-16T11:58:56;18.50;99.90
19522;DHT22;9905;52.126;5.596;2022-10-16T12:01:29;18.60;99.90
19522;DHT22;9905;52.126;5.596;2022-10-16T12:04:07;18.60;99.90
19522;DHT22;9905;52.126;5.596;2022-10-16T12:06:42;18.60;99.90
19522;DHT22;9905;52.126;5.596;2022-10-16T12:09:15;18.70;99.90
19522;DHT22;9905;52.126;5.596;2022-10-16T12:11:43;18.70;99.90
19522;DHT22;9905;52.126;5.596;2022-10-16T12:14:36;18.70;99.90
19522;DHT22;9905;52.126;5.596;2022-10-16T12:17:20;18.80;99.90
19522;DHT22;9905;52.126;5.596;2022-10-16T12:19:57;18.80;99.90
19522;DHT22;9905;52.126;5.596;2022-10-16T12:22:28;18.90;99.90
19522;DHT22;9905;52.126;5.596;2022-10-16T12:24:55;19.00;99.90
19522;DHT22;9905;52.126;5.596;2022-10-16T12:27:27;19.00;99.90
19522;DHT22;9905;52.126;5.596;2022-10-16T12:29:57;19.10;99.90
19522;DHT22;9905;52.126;5.596;2022-10-16T12:32:30;19.10;99.90
19522;DHT22;9905;52.126;5.596;2022-10-16T12:34:58;19.20;99.90
19522;DHT22;9905;52.126;5.596;2022-10-16T12:37:27;19.20;99.90
19522;DHT22;9905;52.126;5.596;2022-10-16T12:39:56;19.10;99.90
19522;DHT22;9905;52.126;5.596;2022-10-16T12:42:33;19.10;99.90
19522;DHT22;9905;52.126;5.596;2022-10-16T12:45:01;19.10;99.90
19522;DHT22;9905;52.126;5.596;2022-10-16T12:47:48;19.10;99.90
19522;DHT22;9905;52.126;5.596;2022-10-16T12:50:26;19.10;99.90
19522;DHT22;9905;52.126;5.596;2022-10-16T12:52:52;19.00;99.90
19522;DHT22;9905;52.126;5.596;2022-10-16T12:55:21;19.00;99.90
19522;DHT22;9905;52.126;5.596;2022-10-16T12:58:07;18.90;99.90
19522;DHT22;9905;52.126;5.596;2022-10-16T13:00:44;18.90;99.90
19522;DHT22;9905;52.126;5.596;2022-10-16T13:03:43;19.00;99.90
19522;DHT22;9905;52.126;5.596;2022-10-16T13:06:20;19.10;99.90
19522;DHT22;9905;52.126;5.596;2022-10-16T13:09:09;19.10;99.90
19522;DHT22;9905;52.126;5.596;2022-10-16T13:11:59;19.20;99.90
19522;DHT22;9905;52.126;5.596;2022-10-16T13:17:39;19.30;99.90
19522;DHT22;9905;52.126;5.596;2022-10-16T13:20:17;19.40;99.90
19522;DHT22;9905;52.126;5.596;2022-10-16T13:22:54;19.40;99.90
19522;DHT22;9905;52.126;5.596;2022-10-16T13:25:32;19.40;99.90
19522;DHT22;9905;52.126;5.596;2022-10-16T13:28:03;19.40;99.90
19522;DHT22;9905;52.126;5.596;2022-10-16T13:30:33;19.50;99.90
19522;DHT22;9905;52.126;5.596;2022-10-16T13:33:03;19.40;99.90
19522;DHT22;9905;52.126;5.596;2022-10-16T13:35:33;19.40;99.90
19522;DHT22;9905;52.126;5.596;2022-10-16T13:38:12;19.40;99.90
19522;DHT22;9905;52.126;5.596;2022-10-16T13:40:49;19.40;99.90
19522;DHT22;9905;52.126;5.596;2022-10-16T13:43:17;19.30;99.90
19522;DHT22;9905;52.126;5.596;2022-10-16T13:45:56;19.20;99.90
19522;DHT22;9905;52.126;5.596;2022-10-16T13:48:25;19.20;99.90
19522;DHT22;9905;52.126;5.596;2022-10-16T13:50:59;19.20;99.90
19522;DHT22;9905;52.126;5.596;2022-10-16T13:53:27;19.20;99.90
19522;DHT22;9905;52.126;5.596;2022-10-16T13:55:54;19.10;99.90
19522;DHT22;9905;52.126;5.596;2022-10-16T13:58:20;19.00;99.90
19522;DHT22;9905;52.126;5.596;2022-10-16T14:00:55;19.10;99.90
19522;DHT22;9905;52.126;5.596;2022-10-16T14:03:25;19.00;99.90
19522;DHT22;9905;52.126;5.596;2022-10-16T14:05:54;19.10;99.90
19522;DHT22;9905;52.126;5.596;2022-10-16T14:08:22;19.00;99.90
19522;DHT22;9905;52.126;5.596;2022-10-16T14:10:50;19.00;99.90
19522;DHT22;9905;52.126;5.596;2022-10-16T14:13:19;19.00;99.90
19522;DHT22;9905;52.126;5.596;2022-10-16T14:15:49;18.90;99.90
19522;DHT22;9905;52.126;5.596;2022-10-16T14:18:19;18.90;99.90
19522;DHT22;9905;52.126;5.596;2022-10-16T14:20:49;18.90;99.90
19522;DHT22;9905;52.126;5.596;2022-10-16T14:23:22;18.90;99.90
19522;DHT22;9905;52.126;5.596;2022-10-16T14:25:49;19.00;99.90
19522;DHT22;9905;52.126;5.596;2022-10-16T14:28:17;19.10;99.90
19522;DHT22;9905;52.126;5.596;2022-10-16T14:31:01;19.00;99.90
19522;DHT22;9905;52.126;5.596;2022-10-16T14:33:32;19.20;99.90
19522;DHT22;9905;52.126;5.596;2022-10-16T14:36:02;19.20;99.90
19522;DHT22;9905;52.126;5.596;2022-10-16T14:38:30;19.10;99.90
19522;DHT22;9905;52.126;5.596;2022-10-16T14:40:58;19.10;99.90
19522;DHT22;9905;52.126;5.596;2022-10-16T14:43:30;19.20;99.90
19522;DHT22;9905;52.126;5.596;2022-10-16T14:45:58;19.10;99.90
19522;DHT22;9905;52.126;5.596;2022-10-16T14:48:26;19.20;99.90
19522;DHT22;9905;52.126;5.596;2022-10-16T14:50:53;19.10;99.90
19522;DHT22;9905;52.126;5.596;2022-10-16T14:53:19;19.10;99.90
19522;DHT22;9905;52.126;5.596;2022-10-16T14:55:46;19.10;99.90
19522;DHT22;9905;52.126;5.596;2022-10-16T14:58:15;19.10;99.90
19522;DHT22;9905;52.126;5.596;2022-10-16T15:00:42;19.00;99.90
19522;DHT22;9905;52.126;5.596;2022-10-16T15:03:09;19.10;99.90
19522;DHT22;9905;52.126;5.596;2022-10-16T15:05:38;19.00;99.90
19522;DHT22;9905;52.126;5.596;2022-10-16T15:08:04;19.00;99.90
19522;DHT22;9905;52.126;5.596;2022-10-16T15:10:35;19.00;99.90
19522;DHT22;9905;52.126;5.596;2022-10-16T15:13:04;18.90;99.90
19522;DHT22;9905;52.126;5.596;2022-10-16T15:15:34;18.80;99.90
19522;DHT22;9905;52.126;5.596;2022-10-16T15:18:01;18.80;99.90
19522;DHT22;9905;52.126;5.596;2022-10-16T15:20:29;18.80;99.90
19522;DHT22;9905;52.126;5.596;2022-10-16T15:23:01;18.80;99.90
19522;DHT22;9905;52.126;5.596;2022-10-16T15:25:31;18.80;99.90
19522;DHT22;9905;52.126;5.596;2022-10-16T15:27:59;18.90;99.90
19522;DHT22;9905;52.126;5.596;2022-10-16T15:30:27;18.80;99.90
19522;DHT22;9905;52.126;5.596;2022-10-16T15:32:54;18.80;99.90
19522;DHT22;9905;52.126;5.596;2022-10-16T15:35:21;18.70;99.90
19522;DHT22;9905;52.126;5.596;2022-10-16T15:37:48;18.70;99.90
19522;DHT22;9905;52.126;5.596;2022-10-16T15:40:17;18.70;99.90
19522;DHT22;9905;52.126;5.596;2022-10-16T15:42:44;18.60;99.90
19522;DHT22;9905;52.126;5.596;2022-10-16T15:45:12;18.60;99.90
19522;DHT22;9905;52.126;5.596;2022-10-16T15:47:39;18.50;99.90
19522;DHT22;9905;52.126;5.596;2022-10-16T15:50:09;18.50;99.90
19522;DHT22;9905;52.126;5.596;2022-10-16T15:52:36;18.40;99.90
19522;DHT22;9905;52.126;5.596;2022-10-16T15:55:05;18.40;99.90
19522;DHT22;9905;52.126;5.596;2022-10-16T15:57:33;18.30;99.90
19522;DHT22;9905;52.126;5.596;2022-10-16T15:59:59;18.30;99.90
19522;DHT22;9905;52.126;5.596;2022-10-16T16:02:26;18.20;99.90
19522;DHT22;9905;52.126;5.596;2022-10-16T16:04:53;18.20;99.90
19522;DHT22;9905;52.126;5.596;2022-10-16T16:07:19;18.10;99.90
19522;DHT22;9905;52.126;5.596;2022-10-16T16:09:46;18.00;99.90